sensor_id;sensor_type;location;lat;lon;timestamp;pressure;altitude;pressure_sealevel;temperature
63220;BMP180;49320;52.512;13.448;2023-08-31T00:00:42;100116.00;;;24.10
63220;BMP180;49320;52.512;13.448;2023-08-31T00:03:10;100115.00;;;24.10
63220;BMP180;49320;52.512;13.448;2023-08-31T00:05:42;100111.00;;;24.20
63220;BMP180;49320;52.512;13.448;2023-08-31T00:08:09;100124.00;;;24.20
63220;BMP180;49320;52.512;13.448;2023-08-31T00:10:38;100120.00;;;24.20
63220;BMP180;49320;52.512;13.448;2023-08-31T00:13:06;100128.00;;;24.20
63220;BMP180;49320;52.512;13.448;2023-08-31T00:15:36;100121.00;;;24.20
63220;BMP180;49320;52.512;13.448;2023-08-31T00:18:04;100121.00;;;24.20
63220;BMP180;49320;52.512;13.448;2023-08-31T00:20:31;100118.00;;;24.20
63220;BMP180;49320;52.512;13.448;2023-08-31T00:23:00;100114.00;;;24.20
63220;BMP180;49320;52.512;13.448;2023-08-31T00:25:27;100113.00;;;24.20
63220;BMP180;49320;52.512;13.448;2023-08-31T00:27:56;100115.00;;;24.20
63220;BMP180;49320;52.512;13.448;2023-08-31T00:30:24;100112.00;;;24.20
63220;BMP180;49320;52.512;13.448;2023-08-31T00:32:56;100105.00;;;24.20
63220;BMP180;49320;52.512;13.448;2023-08-31T00:35:27;100104.00;;;24.20
63220;BMP180;49320;52.512;13.448;2023-08-31T00:37:55;100101.00;;;24.20
63220;BMP180;49320;52.512;13.448;2023-08-31T00:40:26;100098.00;;;24.20
63220;BMP180;49320;52.512;13.448;2023-08-31T00:42:53;100105.00;;;24.20
63220;BMP180;49320;52.512;13.448;2023-08-31T00:45:21;100103.00;;;24.20
63220;BMP180;49320;52.512;13.448;2023-08-31T00:47:49;100106.00;;;24.10
63220;BMP180;49320;52.512;13.448;2023-08-31T00:50:16;100108.00;;;24.10
63220;BMP180;49320;52.512;13.448;2023-08-31T00:52:43;100100.00;;;24.10
63220;BMP180;49320;52.512;13.448;2023-08-31T00:55:14;100100.00;;;24.10
63220;BMP180;49320;52.512;13.448;2023-08-31T00:57:45;100099.00;;;24.10
63220;BMP180;49320;52.512;13.448;2023-08-31T01:00:12;100101.00;;;24.10
63220;BMP180;49320;52.512;13.448;2023-08-31T01:02:59;100104.00;;;24.10
63220;BMP180;49320;52.512;13.448;2023-08-31T01:05:39;100111.00;;;24.00
63220;BMP180;49320;52.512;13.448;2023-08-31T01:08:32;100101.00;;;24.00
63220;BMP180;49320;52.512;13.448;2023-08-31T01:11:13;100118.00;;;24.00
63220;BMP180;49320;52.512;13.448;2023-08-31T01:14:01;100115.00;;;23.90
63220;BMP180;49320;52.512;13.448;2023-08-31T01:16:33;100124.00;;;23.90
63220;BMP180;49320;52.512;13.448;2023-08-31T01:19:20;100116.00;;;23.90
63220;BMP180;49320;52.512;13.448;2023-08-31T01:21:51;100114.00;;;23.90
63220;BMP180;49320;52.512;13.448;2023-08-31T01:24:22;100123.00;;;23.80
63220;BMP180;49320;52.512;13.448;2023-08-31T01:26:51;100129.00;;;23.80
63220;BMP180;49320;52.512;13.448;2023-08-31T01:29:19;100128.00;;;23.70
63220;BMP180;49320;52.512;13.448;2023-08-31T01:31:45;100137.00;;;23.60
63220;BMP180;49320;52.512;13.448;2023-08-31T01:34:12;100134.00;;;23.60
63220;BMP180;49320;52.512;13.448;2023-08-31T01:36:46;100142.00;;;23.60
63220;BMP180;49320;52.512;13.448;2023-08-31T01:39:39;100139.00;;;23.50
63220;BMP180;49320;52.512;13.448;2023-08-31T01:42:13;100143.00;;;23.40
63220;BMP180;49320;52.512;13.448;2023-08-31T01:44:44;100147.00;;;23.30
63220;BMP180;49320;52.512;13.448;2023-08-31T01:47:13;100147.00;;;23.30
63220;BMP180;49320;52.512;13.448;2023-08-31T01:49:40;100141.00;;;23.20
63220;BMP180;49320;52.512;13.448;2023-08-31T01:52:07;100149.00;;;23.20
63220;BMP180;49320;52.512;13.448;2023-08-31T01:54:34;100153.00;;;23.10
63220;BMP180;49320;52.512;13.448;2023-08-31T01:57:01;100150.00;;;23.10
63220;BMP180;49320;52.512;13.448;2023-08-31T01:59:29;100151.00;;;23.00
63220;BMP180;49320;52.512;13.448;2023-08-31T02:01:56;100145.00;;;22.90
63220;BMP180;49320;52.512;13.448;2023-08-31T02:04:24;100152.00;;;22.90
63220;BMP180;49320;52.512;13.448;2023-08-31T02:06:51;100159.00;;;22.80
63220;BMP180;49320;52.512;13.448;2023-08-31T02:09:18;100156.00;;;22.80
63220;BMP180;49320;52.512;13.448;2023-08-31T02:11:45;100161.00;;;22.70
63220;BMP180;49320;52.512;13.448;2023-08-31T02:14:14;100166.00;;;22.70
63220;BMP180;49320;52.512;13.448;2023-08-31T02:16:41;100176.00;;;22.60
63220;BMP180;49320;52.512;13.448;2023-08-31T02:19:08;100180.00;;;22.60
63220;BMP180;49320;52.512;13.448;2023-08-31T02:21:35;100173.00;;;22.60
63220;BMP180;49320;52.512;13.448;2023-08-31T02:24:02;100189.00;;;22.60
63220;BMP180;49320;52.512;13.448;2023-08-31T02:26:29;100191.00;;;22.50
63220;BMP180;49320;52.512;13.448;2023-08-31T02:28:56;100175.00;;;22.40
63220;BMP180;49320;52.512;13.448;2023-08-31T02:31:23;100185.00;;;22.40
63220;BMP180;49320;52.512;13.448;2023-08-31T02:33:50;100172.00;;;22.40
63220;BMP180;49320;52.512;13.448;2023-08-31T02:36:17;100179.00;;;22.30
63220;BMP180;49320;52.512;13.448;2023-08-31T02:38:44;100179.00;;;22.20
63220;BMP180;49320;52.512;13.448;2023-08-31T02:41:11;100178.00;;;22.20
63220;BMP180;49320;52.512;13.448;2023-08-31T02:43:39;100186.00;;;22.20
63220;BMP180;49320;52.512;13.448;2023-08-31T02:46:06;100188.00;;;22.10
63220;BMP180;49320;52.512;13.448;2023-08-31T02:48:33;100180.00;;;22.10
63220;BMP180;49320;52.512;13.448;2023-08-31T02:51:00;100197.00;;;22.00
63220;BMP180;49320;52.512;13.448;2023-08-31T02:53:30;100199.00;;;22.00
63220;BMP180;49320;52.512;13.448;2023-08-31T02:55:58;100189.00;;;22.00
63220;BMP180;49320;52.512;13.448;2023-08-31T02:58:25;100194.00;;;22.00
63220;BMP180;49320;52.512;13.448;2023-08-31T03:00:52;100192.00;;;22.00
63220;BMP180;49320;52.512;13.448;2023-08-31T03:03:20;100192.00;;;22.00
63220;BMP180;49320;52.512;13.448;2023-08-31T03:05:46;100197.00;;;22.00
63220;BMP180;49320;52.512;13.448;2023-08-31T03:08:13;100199.00;;;22.00
63220;BMP180;49320;52.512;13.448;2023-08-31T03:10:40;100200.00;;;22.00
63220;BMP180;49320;52.512;13.448;2023-08-31T03:13:07;100206.00;;;22.10
63220;BMP180;49320;52.512;13.448;2023-08-31T03:15:34;100208.00;;;22.10
63220;BMP180;49320;52.512;13.448;2023-08-31T03:18:01;100204.00;;;22.10
63220;BMP180;49320;52.512;13.448;2023-08-31T03:20:29;100200.00;;;22.10
63220;BMP180;49320;52.512;13.448;2023-08-31T03:22:56;100203.00;;;22.10
63220;BMP180;49320;52.512;13.448;2023-08-31T03:25:23;100198.00;;;22.10
63220;BMP180;49320;52.512;13.448;2023-08-31T03:27:51;100215.00;;;22.20
63220;BMP180;49320;52.512;13.448;2023-08-31T03:30:18;100211.00;;;22.20
63220;BMP180;49320;52.512;13.448;2023-08-31T03:32:44;100218.00;;;22.20
63220;BMP180;49320;52.512;13.448;2023-08-31T03:35:11;100218.00;;;22.10
63220;BMP180;49320;52.512;13.448;2023-08-31T03:37:38;100217.00;;;22.20
63220;BMP180;49320;52.512;13.448;2023-08-31T03:40:06;100218.00;;;22.20
63220;BMP180;49320;52.512;13.448;2023-08-31T03:42:34;100218.00;;;22.10
63220;BMP180;49320;52.512;13.448;2023-08-31T03:45:01;100210.00;;;22.10
63220;BMP180;49320;52.512;13.448;2023-08-31T03:47:30;100219.00;;;22.20
63220;BMP180;49320;52.512;13.448;2023-08-31T03:49:57;100226.00;;;22.20
63220;BMP180;49320;52.512;13.448;2023-08-31T03:52:24;100233.00;;;22.20
63220;BMP180;49320;52.512;13.448;2023-08-31T03:54:51;100223.00;;;22.20
63220;BMP180;49320;52.512;13.448;2023-08-31T03:57:19;100226.00;;;22.20
63220;BMP180;49320;52.512;13.448;2023-08-31T03:59:47;100229.00;;;22.20
63220;BMP180;49320;52.512;13.448;2023-08-31T04:02:14;100242.00;;;22.20
63220;BMP180;49320;52.512;13.448;2023-08-31T04:04:40;100244.00;;;22.20
63220;BMP180;49320;52.512;13.448;2023-08-31T04:07:07;100243.00;;;22.20
63220;BMP180;49320;52.512;13.448;2023-08-31T04:09:34;100240.00;;;22.20
63220;BMP180;49320;52.512;13.448;2023-08-31T04:12:01;100245.00;;;22.20
63220;BMP180;49320;52.512;13.448;2023-08-31T04:14:28;100231.00;;;22.20
63220;BMP180;49320;52.512;13.448;2023-08-31T04:16:55;100244.00;;;22.10
63220;BMP180;49320;52.512;13.448;2023-08-31T04:19:22;100252.00;;;22.10
63220;BMP180;49320;52.512;13.448;2023-08-31T04:21:49;100248.00;;;22.10
63220;BMP180;49320;52.512;13.448;2023-08-31T04:24:16;100242.00;;;22.00
63220;BMP180;49320;52.512;13.448;2023-08-31T04:26:43;100246.00;;;22.00
63220;BMP180;49320;52.512;13.448;2023-08-31T04:29:11;100249.00;;;22.00
63220;BMP180;49320;52.512;13.448;2023-08-31T04:31:38;100249.00;;;21.90
63220;BMP180;49320;52.512;13.448;2023-08-31T04:34:05;100241.00;;;21.90
63220;BMP180;49320;52.512;13.448;2023-08-31T04:36:33;100253.00;;;21.90
63220;BMP180;49320;52.512;13.448;2023-08-31T04:39:00;100257.00;;;21.90
63220;BMP180;49320;52.512;13.448;2023-08-31T04:41:27;100250.00;;;21.90
63220;BMP180;49320;52.512;13.448;2023-08-31T04:43:54;100255.00;;;21.90
63220;BMP180;49320;52.512;13.448;2023-08-31T04:46:21;100255.00;;;21.90
63220;BMP180;49320;52.512;13.448;2023-08-31T04:48:48;100257.00;;;22.00
63220;BMP180;49320;52.512;13.448;2023-08-31T04:51:32;100254.00;;;21.90
63220;BMP180;49320;52.512;13.448;2023-08-31T04:54:00;100265.00;;;21.90
63220;BMP180;49320;52.512;13.448;2023-08-31T04:56:33;100266.00;;;21.90
63220;BMP180;49320;52.512;13.448;2023-08-31T04:59:01;100255.00;;;21.90
63220;BMP180;49320;52.512;13.448;2023-08-31T05:01:29;100259.00;;;21.90
63220;BMP180;49320;52.512;13.448;2023-08-31T05:03:56;100261.00;;;21.90
63220;BMP180;49320;52.512;13.448;2023-08-31T05:06:24;100258.00;;;21.90
63220;BMP180;49320;52.512;13.448;2023-08-31T05:08:51;100263.00;;;21.90
63220;BMP180;49320;52.512;13.448;2023-08-31T05:11:17;100270.00;;;21.90
63220;BMP180;49320;52.512;13.448;2023-08-31T05:13:45;100268.00;;;22.00
63220;BMP180;49320;52.512;13.448;2023-08-31T05:16:12;100266.00;;;22.00
63220;BMP180;49320;52.512;13.448;2023-08-31T05:18:39;100265.00;;;22.00
63220;BMP180;49320;52.512;13.448;2023-08-31T05:21:06;100265.00;;;22.10
63220;BMP180;49320;52.512;13.448;2023-08-31T05:23:33;100262.00;;;22.10
63220;BMP180;49320;52.512;13.448;2023-08-31T05:26:00;100276.00;;;22.20
63220;BMP180;49320;52.512;13.448;2023-08-31T05:28:36;100274.00;;;22.20
63220;BMP180;49320;52.512;13.448;2023-08-31T05:31:03;100273.00;;;22.30
63220;BMP180;49320;52.512;13.448;2023-08-31T05:33:30;100284.00;;;22.40
63220;BMP180;49320;52.512;13.448;2023-08-31T05:36:02;100282.00;;;22.40
63220;BMP180;49320;52.512;13.448;2023-08-31T05:38:32;100289.00;;;22.50
63220;BMP180;49320;52.512;13.448;2023-08-31T05:41:08;100295.00;;;22.50
63220;BMP180;49320;52.512;13.448;2023-08-31T05:43:36;100295.00;;;22.50
63220;BMP180;49320;52.512;13.448;2023-08-31T05:46:07;100295.00;;;22.50
63220;BMP180;49320;52.512;13.448;2023-08-31T05:48:35;100309.00;;;22.50
63220;BMP180;49320;52.512;13.448;2023-08-31T05:51:03;100308.00;;;22.50
63220;BMP180;49320;52.512;13.448;2023-08-31T05:53:31;100318.00;;;22.50
63220;BMP180;49320;52.512;13.448;2023-08-31T05:55:59;100319.00;;;22.50
63220;BMP180;49320;52.512;13.448;2023-08-31T05:58:35;100319.00;;;22.40
63220;BMP180;49320;52.512;13.448;2023-08-31T06:01:05;100322.00;;;22.40
63220;BMP180;49320;52.512;13.448;2023-08-31T06:03:32;100318.00;;;22.40
63220;BMP180;49320;52.512;13.448;2023-08-31T06:06:00;100319.00;;;22.50
63220;BMP180;49320;52.512;13.448;2023-08-31T06:08:27;100313.00;;;22.50
63220;BMP180;49320;52.512;13.448;2023-08-31T06:10:53;100314.00;;;22.50
63220;BMP180;49320;52.512;13.448;2023-08-31T06:13:20;100317.00;;;22.60
63220;BMP180;49320;52.512;13.448;2023-08-31T06:15:47;100324.00;;;22.60
63220;BMP180;49320;52.512;13.448;2023-08-31T06:18:14;100323.00;;;22.60
63220;BMP180;49320;52.512;13.448;2023-08-31T06:20:41;100336.00;;;22.70
63220;BMP180;49320;52.512;13.448;2023-08-31T06:23:10;100338.00;;;22.70
63220;BMP180;49320;52.512;13.448;2023-08-31T06:25:39;100330.00;;;22.70
63220;BMP180;49320;52.512;13.448;2023-08-31T06:28:06;100344.00;;;22.70
63220;BMP180;49320;52.512;13.448;2023-08-31T06:30:35;100339.00;;;22.70
63220;BMP180;49320;52.512;13.448;2023-08-31T06:33:02;100336.00;;;22.70
63220;BMP180;49320;52.512;13.448;2023-08-31T06:35:31;100358.00;;;22.80
63220;BMP180;49320;52.512;13.448;2023-08-31T06:37:58;100341.00;;;22.80
63220;BMP180;49320;52.512;13.448;2023-08-31T06:40:25;100352.00;;;22.80
63220;BMP180;49320;52.512;13.448;2023-08-31T06:42:58;100341.00;;;22.70
63220;BMP180;49320;52.512;13.448;2023-08-31T06:45:24;100351.00;;;22.80
63220;BMP180;49320;52.512;13.448;2023-08-31T06:47:51;100340.00;;;22.80
63220;BMP180;49320;52.512;13.448;2023-08-31T06:50:18;100354.00;;;22.80
63220;BMP180;49320;52.512;13.448;2023-08-31T06:52:45;100352.00;;;22.90
63220;BMP180;49320;52.512;13.448;2023-08-31T06:55:13;100356.00;;;23.00
63220;BMP180;49320;52.512;13.448;2023-08-31T06:57:40;100356.00;;;23.00
63220;BMP180;49320;52.512;13.448;2023-08-31T07:00:09;100364.00;;;23.10
63220;BMP180;49320;52.512;13.448;2023-08-31T07:02:41;100360.00;;;23.10
63220;BMP180;49320;52.512;13.448;2023-08-31T07:05:10;100371.00;;;23.10
63220;BMP180;49320;52.512;13.448;2023-08-31T07:07:37;100371.00;;;23.10
63220;BMP180;49320;52.512;13.448;2023-08-31T07:10:05;100364.00;;;23.10
63220;BMP180;49320;52.512;13.448;2023-08-31T07:12:32;100364.00;;;23.10
63220;BMP180;49320;52.512;13.448;2023-08-31T07:14:59;100365.00;;;23.10
63220;BMP180;49320;52.512;13.448;2023-08-31T07:17:26;100372.00;;;23.10
63220;BMP180;49320;52.512;13.448;2023-08-31T07:19:52;100370.00;;;23.10
63220;BMP180;49320;52.512;13.448;2023-08-31T07:22:19;100363.00;;;23.10
63220;BMP180;49320;52.512;13.448;2023-08-31T07:24:46;100374.00;;;23.10
63220;BMP180;49320;52.512;13.448;2023-08-31T07:27:13;100386.00;;;23.10
63220;BMP180;49320;52.512;13.448;2023-08-31T07:29:40;100382.00;;;23.10
63220;BMP180;49320;52.512;13.448;2023-08-31T07:32:07;100384.00;;;23.10
63220;BMP180;49320;52.512;13.448;2023-08-31T07:34:34;100393.00;;;23.20
63220;BMP180;49320;52.512;13.448;2023-08-31T07:37:01;100388.00;;;23.20
63220;BMP180;49320;52.512;13.448;2023-08-31T07:39:28;100389.00;;;23.20
63220;BMP180;49320;52.512;13.448;2023-08-31T07:41:55;100401.00;;;23.30
63220;BMP180;49320;52.512;13.448;2023-08-31T07:44:22;100405.00;;;23.30
63220;BMP180;49320;52.512;13.448;2023-08-31T07:46:48;100413.00;;;23.30
63220;BMP180;49320;52.512;13.448;2023-08-31T07:49:15;100417.00;;;23.30
63220;BMP180;49320;52.512;13.448;2023-08-31T07:51:42;100419.00;;;23.40
63220;BMP180;49320;52.512;13.448;2023-08-31T07:54:09;100416.00;;;23.50
63220;BMP180;49320;52.512;13.448;2023-08-31T07:56:36;100424.00;;;23.50
63220;BMP180;49320;52.512;13.448;2023-08-31T07:59:03;100427.00;;;23.60
63220;BMP180;49320;52.512;13.448;2023-08-31T08:01:30;100420.00;;;23.70
63220;BMP180;49320;52.512;13.448;2023-08-31T08:03:57;100427.00;;;23.70
63220;BMP180;49320;52.512;13.448;2023-08-31T08:06:24;100428.00;;;23.70
63220;BMP180;49320;52.512;13.448;2023-08-31T08:08:51;100441.00;;;23.70
63220;BMP180;49320;52.512;13.448;2023-08-31T08:11:17;100437.00;;;23.70
63220;BMP180;49320;52.512;13.448;2023-08-31T08:13:44;100448.00;;;23.70
63220;BMP180;49320;52.512;13.448;2023-08-31T08:16:11;100442.00;;;23.80
63220;BMP180;49320;52.512;13.448;2023-08-31T08:18:38;100438.00;;;23.80
63220;BMP180;49320;52.512;13.448;2023-08-31T08:21:05;100451.00;;;23.80
63220;BMP180;49320;52.512;13.448;2023-08-31T08:23:32;100435.00;;;23.90
63220;BMP180;49320;52.512;13.448;2023-08-31T08:25:59;100436.00;;;23.90
63220;BMP180;49320;52.512;13.448;2023-08-31T08:28:26;100434.00;;;23.90
63220;BMP180;49320;52.512;13.448;2023-08-31T08:30:54;100448.00;;;24.00
63220;BMP180;49320;52.512;13.448;2023-08-31T08:33:21;100442.00;;;24.10
63220;BMP180;49320;52.512;13.448;2023-08-31T08:35:47;100432.00;;;24.20
63220;BMP180;49320;52.512;13.448;2023-08-31T08:38:14;100426.00;;;24.30
63220;BMP180;49320;52.512;13.448;2023-08-31T08:40:41;100427.00;;;24.30
63220;BMP180;49320;52.512;13.448;2023-08-31T08:43:09;100442.00;;;24.40
63220;BMP180;49320;52.512;13.448;2023-08-31T08:45:39;100435.00;;;24.40
63220;BMP180;49320;52.512;13.448;2023-08-31T08:48:09;100434.00;;;24.40
63220;BMP180;49320;52.512;13.448;2023-08-31T08:50:37;100438.00;;;24.50
63220;BMP180;49320;52.512;13.448;2023-08-31T08:53:05;100437.00;;;24.50
63220;BMP180;49320;52.512;13.448;2023-08-31T08:55:33;100436.00;;;24.60
63220;BMP180;49320;52.512;13.448;2023-08-31T08:58:00;100439.00;;;24.60
63220;BMP180;49320;52.512;13.448;2023-08-31T09:00:27;100439.00;;;24.60
63220;BMP180;49320;52.512;13.448;2023-08-31T09:02:55;100444.00;;;24.50
63220;BMP180;49320;52.512;13.448;2023-08-31T09:05:23;100439.00;;;24.40
63220;BMP180;49320;52.512;13.448;2023-08-31T09:08:09;100438.00;;;24.40
63220;BMP180;49320;52.512;13.448;2023-08-31T09:10:43;100438.00;;;24.40
63220;BMP180;49320;52.512;13.448;2023-08-31T09:13:14;100432.00;;;24.40
63220;BMP180;49320;52.512;13.448;2023-08-31T09:15:48;100440.00;;;24.50
63220;BMP180;49320;52.512;13.448;2023-08-31T09:18:30;100441.00;;;24.50
63220;BMP180;49320;52.512;13.448;2023-08-31T09:20:59;100438.00;;;24.40
63220;BMP180;49320;52.512;13.448;2023-08-31T09:23:27;100440.00;;;24.40
63220;BMP180;49320;52.512;13.448;2023-08-31T09:25:55;100441.00;;;24.30
63220;BMP180;49320;52.512;13.448;2023-08-31T09:28:26;100447.00;;;24.30
63220;BMP180;49320;52.512;13.448;2023-08-31T09:31:06;100435.00;;;24.40
63220;BMP180;49320;52.512;13.448;2023-08-31T09:33:35;100443.00;;;24.50
63220;BMP180;49320;52.512;13.448;2023-08-31T09:36:07;100443.00;;;24.60
63220;BMP180;49320;52.512;13.448;2023-08-31T09:38:42;100436.00;;;24.80
63220;BMP180;49320;52.512;13.448;2023-08-31T09:41:12;100447.00;;;24.90
63220;BMP180;49320;52.512;13.448;2023-08-31T09:43:40;100445.00;;;25.00
63220;BMP180;49320;52.512;13.448;2023-08-31T09:46:09;100434.00;;;25.10
63220;BMP180;49320;52.512;13.448;2023-08-31T09:48:41;100438.00;;;25.10
63220;BMP180;49320;52.512;13.448;2023-08-31T09:51:14;100441.00;;;25.20
63220;BMP180;49320;52.512;13.448;2023-08-31T09:53:48;100439.00;;;25.20
63220;BMP180;49320;52.512;13.448;2023-08-31T09:56:20;100446.00;;;25.20
63220;BMP180;49320;52.512;13.448;2023-08-31T09:58:48;100437.00;;;25.20
63220;BMP180;49320;52.512;13.448;2023-08-31T10:01:16;100437.00;;;25.30
63220;BMP180;49320;52.512;13.448;2023-08-31T10:03:56;100440.00;;;25.30
63220;BMP180;49320;52.512;13.448;2023-08-31T10:06:24;100428.00;;;25.40
63220;BMP180;49320;52.512;13.448;2023-08-31T10:08:51;100423.00;;;25.40
63220;BMP180;49320;52.512;13.448;2023-08-31T10:11:19;100421.00;;;25.50
63220;BMP180;49320;52.512;13.448;2023-08-31T10:13:48;100416.00;;;25.60
63220;BMP180;49320;52.512;13.448;2023-08-31T10:16:16;100422.00;;;25.70
63220;BMP180;49320;52.512;13.448;2023-08-31T10:18:45;100429.00;;;25.90
63220;BMP180;49320;52.512;13.448;2023-08-31T10:21:16;100434.00;;;26.00
63220;BMP180;49320;52.512;13.448;2023-08-31T10:23:48;100437.00;;;26.20
63220;BMP180;49320;52.512;13.448;2023-08-31T10:28:55;100434.00;;;26.40
63220;BMP180;49320;52.512;13.448;2023-08-31T10:31:27;100431.00;;;26.50
63220;BMP180;49320;52.512;13.448;2023-08-31T10:34:00;100445.00;;;26.60
63220;BMP180;49320;52.512;13.448;2023-08-31T10:36:41;100461.00;;;26.70
63220;BMP180;49320;52.512;13.448;2023-08-31T10:39:16;100454.00;;;26.60
63220;BMP180;49320;52.512;13.448;2023-08-31T10:41:54;100471.00;;;26.60
63220;BMP180;49320;52.512;13.448;2023-08-31T10:46:50;100492.00;;;26.20
63220;BMP180;49320;52.512;13.448;2023-08-31T10:49:20;100487.00;;;26.00
63220;BMP180;49320;52.512;13.448;2023-08-31T10:51:56;100490.00;;;25.80
63220;BMP180;49320;52.512;13.448;2023-08-31T10:54:31;100491.00;;;25.60
63220;BMP180;49320;52.512;13.448;2023-08-31T10:57:04;100487.00;;;25.40
63220;BMP180;49320;52.512;13.448;2023-08-31T11:02:30;100486.00;;;25.20
63220;BMP180;49320;52.512;13.448;2023-08-31T11:05:12;100486.00;;;25.10
63220;BMP180;49320;52.512;13.448;2023-08-31T11:07:44;100476.00;;;25.10
63220;BMP180;49320;52.512;13.448;2023-08-31T11:10:20;100480.00;;;25.00
63220;BMP180;49320;52.512;13.448;2023-08-31T11:12:50;100473.00;;;25.00
63220;BMP180;49320;52.512;13.448;2023-08-31T11:15:19;100464.00;;;25.00
63220;BMP180;49320;52.512;13.448;2023-08-31T11:17:50;100461.00;;;25.00
63220;BMP180;49320;52.512;13.448;2023-08-31T11:20:19;100465.00;;;25.10
63220;BMP180;49320;52.512;13.448;2023-08-31T11:22:49;100462.00;;;25.10
63220;BMP180;49320;52.512;13.448;2023-08-31T11:25:17;100462.00;;;25.20
63220;BMP180;49320;52.512;13.448;2023-08-31T11:28:03;100458.00;;;25.30
63220;BMP180;49320;52.512;13.448;2023-08-31T11:30:35;100458.00;;;25.40
63220;BMP180;49320;52.512;13.448;2023-08-31T11:33:07;100458.00;;;25.60
63220;BMP180;49320;52.512;13.448;2023-08-31T11:35:38;100445.00;;;25.60
63220;BMP180;49320;52.512;13.448;2023-08-31T11:38:07;100449.00;;;25.70
63220;BMP180;49320;52.512;13.448;2023-08-31T11:40:36;100445.00;;;25.80
63220;BMP180;49320;52.512;13.448;2023-08-31T11:43:05;100439.00;;;26.00
63220;BMP180;49320;52.512;13.448;2023-08-31T11:45:32;100438.00;;;26.10
63220;BMP180;49320;52.512;13.448;2023-08-31T11:48:00;100448.00;;;26.10
63220;BMP180;49320;52.512;13.448;2023-08-31T11:50:27;100440.00;;;26.00
63220;BMP180;49320;52.512;13.448;2023-08-31T11:52:55;100442.00;;;26.10
63220;BMP180;49320;52.512;13.448;2023-08-31T11:55:22;100441.00;;;26.10
63220;BMP180;49320;52.512;13.448;2023-08-31T11:57:51;100451.00;;;26.20
63220;BMP180;49320;52.512;13.448;2023-08-31T12:00:21;100446.00;;;26.30
63220;BMP180;49320;52.512;13.448;2023-08-31T12:02:59;100456.00;;;26.30
63220;BMP180;49320;52.512;13.448;2023-08-31T12:05:27;100468.00;;;26.30
63220;BMP180;49320;52.512;13.448;2023-08-31T12:07:55;100462.00;;;26.20
63220;BMP180;49320;52.512;13.448;2023-08-31T12:10:26;100424.00;;;26.10
63220;BMP180;49320;52.512;13.448;2023-08-31T12:12:54;100436.00;;;25.90
63220;BMP180;49320;52.512;13.448;2023-08-31T12:15:23;100452.00;;;25.70
63220;BMP180;49320;52.512;13.448;2023-08-31T12:17:50;100457.00;;;25.60
63220;BMP180;49320;52.512;13.448;2023-08-31T12:20:26;100461.00;;;25.50
63220;BMP180;49320;52.512;13.448;2023-08-31T12:22:53;100466.00;;;25.60
63220;BMP180;49320;52.512;13.448;2023-08-31T12:25:21;100452.00;;;25.60
63220;BMP180;49320;52.512;13.448;2023-08-31T12:27:48;100464.00;;;25.70
63220;BMP180;49320;52.512;13.448;2023-08-31T12:30:16;100466.00;;;25.80
63220;BMP180;49320;52.512;13.448;2023-08-31T12:32:43;100459.00;;;25.90
63220;BMP180;49320;52.512;13.448;2023-08-31T12:35:10;100468.00;;;26.00
63220;BMP180;49320;52.512;13.448;2023-08-31T12:37:38;100472.00;;;26.10
63220;BMP180;49320;52.512;13.448;2023-08-31T12:40:06;100469.00;;;26.20
63220;BMP180;49320;52.512;13.448;2023-08-31T12:42:33;100469.00;;;26.20
63220;BMP180;49320;52.512;13.448;2023-08-31T12:45:01;100470.00;;;26.20
63220;BMP180;49320;52.512;13.448;2023-08-31T12:47:27;100468.00;;;26.20
63220;BMP180;49320;52.512;13.448;2023-08-31T12:49:54;100474.00;;;26.10
63220;BMP180;49320;52.512;13.448;2023-08-31T12:52:21;100470.00;;;26.00
63220;BMP180;49320;52.512;13.448;2023-08-31T12:54:48;100476.00;;;25.90
63220;BMP180;49320;52.512;13.448;2023-08-31T12:57:15;100476.00;;;25.90
63220;BMP180;49320;52.512;13.448;2023-08-31T12:59:41;100480.00;;;25.80
63220;BMP180;49320;52.512;13.448;2023-08-31T13:02:11;100474.00;;;25.80
63220;BMP180;49320;52.512;13.448;2023-08-31T13:04:38;100483.00;;;25.90
63220;BMP180;49320;52.512;13.448;2023-08-31T13:07:07;100476.00;;;25.90
63220;BMP180;49320;52.512;13.448;2023-08-31T13:09:34;100483.00;;;26.00
63220;BMP180;49320;52.512;13.448;2023-08-31T13:12:01;100474.00;;;25.90
63220;BMP180;49320;52.512;13.448;2023-08-31T13:14:28;100472.00;;;25.90
63220;BMP180;49320;52.512;13.448;2023-08-31T13:16:54;100464.00;;;25.90
63220;BMP180;49320;52.512;13.448;2023-08-31T13:19:22;100464.00;;;25.90
63220;BMP180;49320;52.512;13.448;2023-08-31T13:21:49;100459.00;;;25.90
63220;BMP180;49320;52.512;13.448;2023-08-31T13:24:16;100451.00;;;25.90
63220;BMP180;49320;52.512;13.448;2023-08-31T13:26:43;100448.00;;;25.90
63220;BMP180;49320;52.512;13.448;2023-08-31T13:29:15;100435.00;;;25.90
63220;BMP180;49320;52.512;13.448;2023-08-31T13:31:42;100446.00;;;26.00
63220;BMP180;49320;52.512;13.448;2023-08-31T13:34:08;100440.00;;;26.00
63220;BMP180;49320;52.512;13.448;2023-08-31T13:36:37;100455.00;;;26.00
63220;BMP180;49320;52.512;13.448;2023-08-31T13:39:03;100461.00;;;26.00
63220;BMP180;49320;52.512;13.448;2023-08-31T13:41:30;100468.00;;;25.90
63220;BMP180;49320;52.512;13.448;2023-08-31T13:43:57;100470.00;;;25.90
63220;BMP180;49320;52.512;13.448;2023-08-31T13:46:24;100475.00;;;25.80
63220;BMP180;49320;52.512;13.448;2023-08-31T13:48:51;100473.00;;;25.80
63220;BMP180;49320;52.512;13.448;2023-08-31T13:51:18;100472.00;;;25.70
63220;BMP180;49320;52.512;13.448;2023-08-31T13:53:45;100473.00;;;25.70
63220;BMP180;49320;52.512;13.448;2023-08-31T13:56:13;100471.00;;;25.70
63220;BMP180;49320;52.512;13.448;2023-08-31T13:58:40;100479.00;;;25.60
63220;BMP180;49320;52.512;13.448;2023-08-31T14:01:07;100481.00;;;25.60